Time;durP1;ratioP1;P1;durP2;ratioP2;P2;SDS_P1;SDS_P2;PMS_P1;PMS_P2;Temp;Humidity;BMP_temperature;BMP_pressure;BME280_temperature;BME280_humidity;BME280_pressure;Samples;Min_cycle;Max_cycle;Signal;HPM_P1;HPM_P2
2021/05/03 00:02:08;;;;;;;7.97;6.25;;;;;;;;;;4993154;28;20068;-79
2021/05/03 00:04:34;;;;;;;9.23;6.20;;;;;;;;;;4994417;28;20060;-79
2021/05/03 00:07:01;;;;;;;8.60;6.40;;;;;;;;;;4997654;28;20560;-78
2021/05/03 00:09:27;;;;;;;8.35;5.85;;;;;;;;;;4973633;28;20129;-78
2021/05/03 00:11:53;;;;;;;9.05;5.75;;;;;;;;;;5011431;28;20448;-79
2021/05/03 00:14:19;;;;;;;7.60;5.78;;;;;;;;;;5008322;28;20053;-79
2021/05/03 00:16:45;;;;;;;9.70;6.03;;;;;;;;;;4976950;28;20125;-79
2021/05/03 00:19:11;;;;;;;10.32;6.68;;;;;;;;;;5013339;28;20046;-78
2021/05/03 00:21:38;;;;;;;9.07;5.95;;;;;;;;;;4993415;28;20049;-78
2021/05/03 00:24:05;;;;;;;8.35;6.20;;;;;;;;;;5010685;28;20070;-83
2021/05/03 00:26:31;;;;;;;9.68;6.18;;;;;;;;;;4996166;28;20404;-80
2021/05/03 00:28:57;;;;;;;10.15;5.65;;;;;;;;;;4977678;28;20395;-79
2021/05/03 00:31:23;;;;;;;12.10;7.00;;;;;;;;;;4995071;28;20455;-78
2021/05/03 00:33:50;;;;;;;10.25;5.85;;;;;;;;;;5011542;28;20417;-79
2021/05/03 00:36:16;;;;;;;8.45;5.90;;;;;;;;;;4997344;28;20045;-79
2021/05/03 00:38:42;;;;;;;7.82;5.88;;;;;;;;;;4994376;28;20053;-79
2021/05/03 00:41:09;;;;;;;7.20;5.85;;;;;;;;;;5011479;28;20038;-79
2021/05/03 00:43:35;;;;;;;9.05;5.55;;;;;;;;;;4991634;28;20144;-79
2021/05/03 00:46:01;;;;;;;8.80;5.90;;;;;;;;;;4997387;28;20053;-78
2021/05/03 00:48:27;;;;;;;7.53;5.68;;;;;;;;;;4993700;28;20045;-78
2021/05/03 00:50:54;;;;;;;7.32;6.07;;;;;;;;;;4996540;28;20863;-78
2021/05/03 00:53:20;;;;;;;6.78;5.90;;;;;;;;;;5008317;28;20041;-79
2021/05/03 00:55:46;;;;;;;8.20;6.00;;;;;;;;;;5013166;28;20042;-79
2021/05/03 00:58:13;;;;;;;9.15;5.47;;;;;;;;;;5012395;28;20042;-77
2021/05/03 01:00:39;;;;;;;8.77;5.97;;;;;;;;;;5000104;28;20046;-79
2021/05/03 01:03:06;;;;;;;9.48;6.32;;;;;;;;;;4978743;28;20037;-80
2021/05/03 01:05:33;;;;;;;14.15;6.10;;;;;;;;;;4974970;28;20476;-80
2021/05/03 01:08:00;;;;;;;8.40;5.97;;;;;;;;;;4996550;28;20038;-79
2021/05/03 01:10:27;;;;;;;7.63;6.03;;;;;;;;;;4993290;28;20540;-78
2021/05/03 01:12:54;;;;;;;7.25;5.60;;;;;;;;;;5012827;28;20124;-79
2021/05/03 01:15:24;;;;;;;7.28;5.32;;;;;;;;;;5008066;28;20507;-79
2021/05/03 01:17:55;;;;;;;7.25;5.50;;;;;;;;;;5006765;28;20078;-78
2021/05/03 01:20:23;;;;;;;9.38;5.25;;;;;;;;;;4994150;28;20111;-79
2021/05/03 01:22:49;;;;;;;8.25;5.13;;;;;;;;;;5008980;28;20050;-79
2021/05/03 01:25:15;;;;;;;7.55;5.60;;;;;;;;;;5010844;28;20037;-78
2021/05/03 01:27:41;;;;;;;8.10;5.13;;;;;;;;;;4973998;28;20046;-79
2021/05/03 01:30:08;;;;;;;8.80;5.78;;;;;;;;;;4990375;28;20045;-78
2021/05/03 01:32:34;;;;;;;10.32;5.97;;;;;;;;;;5008892;28;20134;-78
2021/05/03 01:35:00;;;;;;;7.10;5.53;;;;;;;;;;4994695;28;20045;-79
2021/05/03 01:37:27;;;;;;;7.88;5.93;;;;;;;;;;5009176;28;20068;-79
2021/05/03 01:39:53;;;;;;;8.43;5.60;;;;;;;;;;4990344;28;20067;-78
2021/05/03 01:42:19;;;;;;;8.50;5.53;;;;;;;;;;5010441;28;20732;-79
2021/05/03 01:44:46;;;;;;;7.18;5.53;;;;;;;;;;4977119;28;20184;-81
2021/05/03 01:47:12;;;;;;;7.70;5.80;;;;;;;;;;5008488;28;20050;-79
2021/05/03 01:49:39;;;;;;;7.55;5.07;;;;;;;;;;4992792;28;20084;-80
2021/05/03 01:52:06;;;;;;;10.27;5.90;;;;;;;;;;5009367;28;20045;-79
2021/05/03 01:54:32;;;;;;;6.78;5.57;;;;;;;;;;4994951;28;20041;-79
2021/05/03 01:56:59;;;;;;;9.00;5.47;;;;;;;;;;4994023;28;20050;-78
2021/05/03 01:59:32;;;;;;;8.18;5.07;;;;;;;;;;4989392;28;20096;-78
2021/05/03 02:01:58;;;;;;;9.68;5.82;;;;;;;;;;4961915;28;20395;-80
2021/05/03 02:04:24;;;;;;;7.85;5.32;;;;;;;;;;4973754;28;20045;-81
2021/05/03 02:06:51;;;;;;;7.97;6.10;;;;;;;;;;5014550;28;20741;-79
2021/05/03 02:09:17;;;;;;;9.80;6.20;;;;;;;;;;5017234;28;20034;-80
2021/05/03 02:11:45;;;;;;;10.27;6.47;;;;;;;;;;4997491;28;20121;-79
2021/05/03 02:14:11;;;;;;;9.90;6.30;;;;;;;;;;5015092;28;20117;-79
2021/05/03 02:16:37;;;;;;;10.05;6.72;;;;;;;;;;4978710;28;20042;-79
2021/05/03 02:19:04;;;;;;;10.75;6.63;;;;;;;;;;5016582;28;20048;-80
2021/05/03 02:21:30;;;;;;;11.48;6.72;;;;;;;;;;5013106;28;20049;-78
2021/05/03 02:23:56;;;;;;;11.02;6.45;;;;;;;;;;4991395;28;20058;-79
2021/05/03 02:26:22;;;;;;;10.13;6.80;;;;;;;;;;4996288;28;20043;-79
2021/05/03 02:28:51;;;;;;;8.80;6.32;;;;;;;;;;4992121;28;20110;-78
2021/05/03 02:31:18;;;;;;;9.93;7.25;;;;;;;;;;4991505;28;20050;-79
2021/05/03 02:33:44;;;;;;;9.00;6.63;;;;;;;;;;4993510;28;20033;-78
2021/05/03 02:36:10;;;;;;;10.10;6.70;;;;;;;;;;4993680;28;20034;-78
2021/05/03 02:38:36;;;;;;;9.70;6.65;;;;;;;;;;4994215;28;20054;-79
2021/05/03 02:41:02;;;;;;;12.52;7.07;;;;;;;;;;4997367;28;20054;-80
2021/05/03 02:43:29;;;;;;;6.88;6.05;;;;;;;;;;4994990;28;20045;-83
2021/05/03 02:45:55;;;;;;;13.70;6.75;;;;;;;;;;4994347;28;20130;-79
2021/05/03 02:48:21;;;;;;;8.75;6.63;;;;;;;;;;4992010;28;20711;-78
2021/05/03 02:50:47;;;;;;;12.73;7.47;;;;;;;;;;4991792;28;20045;-82
2021/05/03 02:53:14;;;;;;;11.63;7.28;;;;;;;;;;4984603;28;20466;-79
2021/05/03 02:55:40;;;;;;;10.80;8.25;;;;;;;;;;4994487;28;20112;-79
2021/05/03 02:58:06;;;;;;;12.13;7.25;;;;;;;;;;4995759;28;20038;-79
2021/05/03 03:00:34;;;;;;;11.02;7.93;;;;;;;;;;4974684;28;20046;-80
2021/05/03 03:03:01;;;;;;;10.07;7.25;;;;;;;;;;4988870;28;20046;-80
2021/05/03 03:05:27;;;;;;;15.77;8.18;;;;;;;;;;4992036;28;20065;-79
2021/05/03 03:07:53;;;;;;;18.48;9.88;;;;;;;;;;4992627;28;20121;-80
2021/05/03 03:10:20;;;;;;;14.20;9.45;;;;;;;;;;4992736;28;20046;-80
2021/05/03 03:12:47;;;;;;;12.68;9.57;;;;;;;;;;4994122;28;20789;-80
2021/05/03 03:15:15;;;;;;;15.20;9.85;;;;;;;;;;4995400;28;20436;-80
2021/05/03 03:17:42;;;;;;;15.27;9.82;;;;;;;;;;4992354;28;20116;-80
2021/05/03 03:20:09;;;;;;;14.65;10.32;;;;;;;;;;4997365;28;20054;-80
2021/05/03 03:22:36;;;;;;;15.57;9.93;;;;;;;;;;4994363;28;20044;-80
2021/05/03 03:25:03;;;;;;;17.52;11.60;;;;;;;;;;5012099;28;20084;-80
2021/05/03 03:27:29;;;;;;;18.55;11.43;;;;;;;;;;4991805;28;20096;-80
2021/05/03 03:29:56;;;;;;;16.90;10.20;;;;;;;;;;4995282;28;20045;-81
2021/05/03 03:32:23;;;;;;;16.45;10.80;;;;;;;;;;4998422;28;20049;-80
2021/05/03 03:34:49;;;;;;;17.85;9.68;;;;;;;;;;4994075;28;20045;-80
2021/05/03 03:37:15;;;;;;;19.90;10.70;;;;;;;;;;4994558;28;20113;-80
2021/05/03 03:39:42;;;;;;;18.52;11.20;;;;;;;;;;4997041;28;20041;-82
2021/05/03 03:42:08;;;;;;;16.98;11.50;;;;;;;;;;5003806;28;20056;-81
2021/05/03 03:44:34;;;;;;;25.02;11.90;;;;;;;;;;5012152;28;20041;-82
2021/05/03 03:47:01;;;;;;;20.02;12.88;;;;;;;;;;5000341;28;20049;-80
2021/05/03 03:49:28;;;;;;;17.42;11.93;;;;;;;;;;4995455;28;20042;-79
2021/05/03 03:51:54;;;;;;;20.13;13.63;;;;;;;;;;4994345;28;20046;-80
2021/05/03 03:54:20;;;;;;;22.70;13.57;;;;;;;;;;5012973;28;20392;-80
2021/05/03 03:56:46;;;;;;;29.10;14.98;;;;;;;;;;4995694;28;20092;-79
2021/05/03 03:59:14;;;;;;;25.63;14.93;;;;;;;;;;5012228;28;20128;-79
2021/05/03 04:01:41;;;;;;;17.90;13.70;;;;;;;;;;4994511;28;20100;-80
2021/05/03 04:04:25;;;;;;;21.77;13.32;;;;;;;;;;4998278;28;20034;-80
2021/05/03 04:06:59;;;;;;;19.33;12.57;;;;;;;;;;5013564;28;20045;-79
2021/05/03 04:09:34;;;;;;;25.38;14.88;;;;;;;;;;4995415;28;20288;-79
2021/05/03 04:25:50;;;;;;;21.45;13.63;;;;;;;;;;5013765;28;20042;-79
2021/05/03 04:28:16;;;;;;;18.65;12.45;;;;;;;;;;5009674;28;20050;-79
2021/05/03 04:30:42;;;;;;;17.65;12.00;;;;;;;;;;4996754;28;20049;-79
2021/05/03 04:33:08;;;;;;;18.52;12.25;;;;;;;;;;4996396;28;20049;-79
2021/05/03 04:35:34;;;;;;;17.33;11.40;;;;;;;;;;5011990;28;20045;-80
2021/05/03 04:38:00;;;;;;;23.98;13.43;;;;;;;;;;4995637;28;20444;-80
2021/05/03 04:40:27;;;;;;;15.43;11.32;;;;;;;;;;4994456;28;20041;-80
2021/05/03 04:42:53;;;;;;;22.20;13.70;;;;;;;;;;4990923;28;20042;-81
2021/05/03 04:45:20;;;;;;;19.90;11.73;;;;;;;;;;5014647;28;20042;-78
2021/05/03 04:47:46;;;;;;;20.55;12.38;;;;;;;;;;4994317;28;20042;-76
2021/05/03 04:50:12;;;;;;;20.13;12.07;;;;;;;;;;4993858;28;20054;-78
2021/05/03 04:52:38;;;;;;;18.40;12.40;;;;;;;;;;5011730;28;20099;-79
2021/05/03 04:55:05;;;;;;;39.28;12.98;;;;;;;;;;4992780;28;20033;-76
2021/05/03 04:57:31;;;;;;;19.25;12.80;;;;;;;;;;4991596;28;20405;-79
2021/05/03 04:59:57;;;;;;;20.33;13.82;;;;;;;;;;5005755;28;20045;-75
2021/05/03 05:02:24;;;;;;;19.65;14.10;;;;;;;;;;4976776;28;20113;-76
2021/05/03 05:04:50;;;;;;;24.60;14.55;;;;;;;;;;4992157;28;20499;-79
2021/05/03 05:07:19;;;;;;;27.98;17.08;;;;;;;;;;4995650;28;20056;-79
2021/05/03 05:09:45;;;;;;;29.30;17.23;;;;;;;;;;4996181;28;20044;-78
2021/05/03 05:12:11;;;;;;;25.45;17.00;;;;;;;;;;4990118;28;20477;-80
2021/05/03 05:14:38;;;;;;;26.17;17.40;;;;;;;;;;4993754;28;20117;-79
2021/05/03 05:17:04;;;;;;;27.67;17.27;;;;;;;;;;4992172;28;20493;-80
2021/05/03 05:19:30;;;;;;;28.27;17.50;;;;;;;;;;4991638;28;20053;-79
2021/05/03 05:21:56;;;;;;;25.60;17.73;;;;;;;;;;4998753;28;20045;-80
2021/05/03 05:24:22;;;;;;;27.38;17.77;;;;;;;;;;5012722;28;20057;-79
2021/05/03 05:26:48;;;;;;;38.13;21.90;;;;;;;;;;5006647;28;20453;-80
2021/05/03 05:29:15;;;;;;;32.28;18.08;;;;;;;;;;4996026;28;20091;-79
2021/05/03 05:31:41;;;;;;;22.13;14.70;;;;;;;;;;4994493;28;20423;-79
2021/05/03 05:34:07;;;;;;;19.90;14.55;;;;;;;;;;4992170;28;20109;-80
2021/05/03 05:36:33;;;;;;;22.60;14.48;;;;;;;;;;4991959;28;20048;-80
2021/05/03 05:39:00;;;;;;;17.90;13.05;;;;;;;;;;4983572;28;20049;-81
2021/05/03 05:41:27;;;;;;;23.17;14.73;;;;;;;;;;5005012;28;20042;-79
2021/05/03 05:43:53;;;;;;;13.73;9.93;;;;;;;;;;5003105;28;20044;-79
2021/05/03 05:46:20;;;;;;;13.65;9.30;;;;;;;;;;5008314;28;20042;-80
2021/05/03 05:48:47;;;;;;;12.57;9.73;;;;;;;;;;4991115;28;20070;-80
2021/05/03 05:51:14;;;;;;;14.65;9.95;;;;;;;;;;4993577;28;20452;-80
2021/05/03 05:53:40;;;;;;;15.02;9.95;;;;;;;;;;5011250;28;20064;-79
2021/05/03 05:56:07;;;;;;;14.00;9.95;;;;;;;;;;4978018;28;20052;-79
2021/05/03 05:58:33;;;;;;;14.55;11.30;;;;;;;;;;5009119;28;20038;-79
2021/05/03 06:01:03;;;;;;;17.95;11.05;;;;;;;;;;4976878;28;20042;-80
2021/05/03 06:03:29;;;;;;;13.95;9.60;;;;;;;;;;5007814;28;20074;-79
2021/05/03 06:05:58;;;;;;;13.15;9.27;;;;;;;;;;5007365;28;20049;-80
2021/05/03 06:08:25;;;;;;;13.57;10.35;;;;;;;;;;4991015;28;20396;-80
2021/05/03 06:10:51;;;;;;;14.32;10.95;;;;;;;;;;4984331;28;20459;-80
2021/05/03 06:13:17;;;;;;;16.42;11.32;;;;;;;;;;4974188;28;20053;-80
2021/05/03 06:15:44;;;;;;;13.77;10.68;;;;;;;;;;4964551;28;20042;-80
2021/05/03 06:18:10;;;;;;;15.25;10.48;;;;;;;;;;4989637;28;20064;-80
2021/05/03 06:20:36;;;;;;;13.30;8.85;;;;;;;;;;4991752;28;20080;-81
2021/05/03 06:23:03;;;;;;;14.52;11.32;;;;;;;;;;5024131;28;20074;-80
2021/05/03 06:25:29;;;;;;;13.75;9.93;;;;;;;;;;5010254;28;20081;-80
2021/05/03 06:27:55;;;;;;;12.48;9.88;;;;;;;;;;5012055;28;20095;-80
2021/05/03 06:30:23;;;;;;;16.70;12.55;;;;;;;;;;4977399;28;20168;-80
2021/05/03 06:32:50;;;;;;;18.80;13.38;;;;;;;;;;4992693;28;20072;-81
2021/05/03 06:35:17;;;;;;;14.85;10.98;;;;;;;;;;5010968;28;20053;-80
2021/05/03 06:37:43;;;;;;;16.08;11.70;;;;;;;;;;4992393;28;20081;-81
2021/05/03 06:40:09;;;;;;;14.02;10.45;;;;;;;;;;4991744;28;20173;-81
2021/05/03 06:42:36;;;;;;;14.27;11.00;;;;;;;;;;5011333;28;20050;-81
2021/05/03 06:45:03;;;;;;;22.92;13.80;;;;;;;;;;5009902;28;20069;-81
2021/05/03 06:47:30;;;;;;;20.33;13.65;;;;;;;;;;4992731;28;20045;-81
2021/05/03 06:49:56;;;;;;;16.05;12.32;;;;;;;;;;5008753;28;20129;-80
2021/05/03 06:52:23;;;;;;;21.10;14.65;;;;;;;;;;5012652;28;20050;-80
2021/05/03 06:54:49;;;;;;;24.92;18.17;;;;;;;;;;4996482;28;20038;-81
2021/05/03 06:57:16;;;;;;;28.92;18.75;;;;;;;;;;5012939;28;20037;-81
2021/05/03 06:59:42;;;;;;;28.40;20.58;;;;;;;;;;5003903;28;20049;-83
2021/05/03 07:02:10;;;;;;;32.70;23.75;;;;;;;;;;4971699;28;20045;-80
2021/05/03 07:04:37;;;;;;;40.83;28.48;;;;;;;;;;4988371;28;20116;-82
2021/05/03 07:07:03;;;;;;;43.30;31.65;;;;;;;;;;4987548;28;20045;-83
2021/05/03 07:09:30;;;;;;;62.85;38.05;;;;;;;;;;5006021;28;20488;-81
2021/05/03 07:11:57;;;;;;;59.22;38.80;;;;;;;;;;4972195;28;20388;-84
2021/05/03 07:14:23;;;;;;;60.90;40.72;;;;;;;;;;4991544;28;20064;-81
2021/05/03 07:16:49;;;;;;;50.40;36.08;;;;;;;;;;4996834;28;20041;-81
2021/05/03 07:19:15;;;;;;;61.75;40.25;;;;;;;;;;5011839;28;20061;-81
2021/05/03 07:21:42;;;;;;;66.20;41.85;;;;;;;;;;4997216;28;20500;-81
2021/05/03 07:24:10;;;;;;;66.70;42.10;;;;;;;;;;5001793;28;20124;-82
2021/05/03 07:26:36;;;;;;;49.50;35.90;;;;;;;;;;4995358;28;20050;-82
2021/05/03 07:29:02;;;;;;;56.40;38.13;;;;;;;;;;5013385;28;20073;-81
2021/05/03 07:31:28;;;;;;;56.30;39.03;;;;;;;;;;4995849;28;20444;-80
2021/05/03 07:33:54;;;;;;;57.45;37.95;;;;;;;;;;4995667;28;20038;-81
2021/05/03 07:36:21;;;;;;;57.50;38.78;;;;;;;;;;4994659;28;20042;-80
2021/05/03 07:38:47;;;;;;;63.17;38.30;;;;;;;;;;4995379;28;20100;-80
2021/05/03 07:41:13;;;;;;;56.65;39.45;;;;;;;;;;4996198;28;20473;-80
2021/05/03 07:43:39;;;;;;;73.22;41.83;;;;;;;;;;4995120;28;20044;-81
2021/05/03 07:46:05;;;;;;;72.63;46.75;;;;;;;;;;5013595;28;20382;-81
2021/05/03 07:48:32;;;;;;;82.15;50.17;;;;;;;;;;4993214;28;20050;-81
2021/05/03 07:50:58;;;;;;;68.55;46.03;;;;;;;;;;4980083;28;20073;-81
2021/05/03 07:53:24;;;;;;;81.03;48.95;;;;;;;;;;4996107;28;20069;-80
2021/05/03 07:55:50;;;;;;;92.53;54.92;;;;;;;;;;4996550;28;20125;-80
2021/05/03 07:58:17;;;;;;;89.30;56.75;;;;;;;;;;4978358;28;20037;-80
2021/05/03 08:00:43;;;;;;;88.22;55.97;;;;;;;;;;4982554;28;20431;-80
2021/05/03 08:03:09;;;;;;;98.28;60.10;;;;;;;;;;4995781;28;20077;-82
2021/05/03 08:05:35;;;;;;;89.30;59.03;;;;;;;;;;4988010;28;20124;-81
2021/05/03 08:08:01;;;;;;;89.93;56.92;;;;;;;;;;4994647;28;20050;-81
2021/05/03 08:10:28;;;;;;;91.75;57.15;;;;;;;;;;4994280;28;20088;-81
2021/05/03 08:12:54;;;;;;;95.50;60.30;;;;;;;;;;4996277;28;20121;-80
2021/05/03 08:15:23;;;;;;;83.10;55.85;;;;;;;;;;5010418;28;20053;-81
2021/05/03 08:17:49;;;;;;;79.97;54.38;;;;;;;;;;5011630;28;20076;-81
2021/05/03 08:20:16;;;;;;;88.65;57.92;;;;;;;;;;5012347;28;20037;-81
2021/05/03 08:22:43;;;;;;;65.75;50.30;;;;;;;;;;4995626;28;20050;-80
2021/05/03 08:25:09;;;;;;;61.83;48.40;;;;;;;;;;4990928;28;20053;-81
2021/05/03 08:27:36;;;;;;;56.17;43.92;;;;;;;;;;5014660;28;20046;-81
2021/05/03 08:30:03;;;;;;;50.90;37.95;;;;;;;;;;4979067;28;20049;-84
2021/05/03 08:32:29;;;;;;;56.35;38.90;;;;;;;;;;5012534;28;20061;-80
2021/05/03 08:34:55;;;;;;;40.22;32.25;;;;;;;;;;4995159;28;20037;-81
2021/05/03 08:37:21;;;;;;;35.22;28.27;;;;;;;;;;4978093;28;20132;-81
2021/05/03 08:39:48;;;;;;;27.40;20.83;;;;;;;;;;4971865;28;20140;-81
2021/05/03 08:42:16;;;;;;;22.92;16.58;;;;;;;;;;4985092;28;20041;-82
2021/05/03 08:44:45;;;;;;;17.23;14.65;;;;;;;;;;5007603;28;20409;-86
2021/05/03 08:47:11;;;;;;;20.15;14.73;;;;;;;;;;4986896;28;20057;-82
2021/05/03 08:54:46;;;;;;;14.13;10.75;;;;;;;;;;4993881;28;20099;-81
2021/05/03 08:57:13;;;;;;;14.50;10.23;;;;;;;;;;5003959;28;20487;-81
2021/05/03 08:59:40;;;;;;;10.95;9.63;;;;;;;;;;4978240;28;20064;-81
2021/05/03 09:02:07;;;;;;;9.15;7.72;;;;;;;;;;5011606;28;20046;-82
2021/05/03 09:04:34;;;;;;;9.15;7.13;;;;;;;;;;4994156;28;20041;-81
2021/05/03 09:07:10;;;;;;;12.43;8.13;;;;;;;;;;5011544;28;20100;-81
2021/05/03 09:09:37;;;;;;;10.23;7.85;;;;;;;;;;5008194;28;20034;-80
2021/05/03 09:12:09;;;;;;;10.18;8.27;;;;;;;;;;4993768;28;20060;-81
2021/05/03 09:14:45;;;;;;;11.98;8.27;;;;;;;;;;5005323;28;20042;-85
2021/05/03 09:17:20;;;;;;;12.60;9.27;;;;;;;;;;4989518;28;20129;-84
2021/05/03 09:19:47;;;;;;;11.60;9.80;;;;;;;;;;4994215;28;20089;-84
2021/05/03 09:22:24;;;;;;;10.35;8.10;;;;;;;;;;4994788;28;20050;-86
2021/05/03 09:24:50;;;;;;;11.02;8.52;;;;;;;;;;4989507;28;20046;-83
2021/05/03 09:27:19;;;;;;;12.80;9.88;;;;;;;;;;4993044;28;20046;-83
2021/05/03 09:29:46;;;;;;;11.20;9.95;;;;;;;;;;4993317;28;20049;-82
2021/05/03 09:32:19;;;;;;;15.93;11.60;;;;;;;;;;5009370;28;20050;-84
2021/05/03 09:34:52;;;;;;;16.38;12.63;;;;;;;;;;4993102;28;20103;-83
2021/05/03 09:37:21;;;;;;;19.02;13.77;;;;;;;;;;5010252;28;20045;-83
2021/05/03 09:39:53;;;;;;;19.27;15.18;;;;;;;;;;4990270;28;20391;-83
2021/05/03 09:42:20;;;;;;;21.75;18.00;;;;;;;;;;4993207;28;20046;-83
2021/05/03 09:45:06;;;;;;;26.05;19.55;;;;;;;;;;4985098;28;20034;-82
2021/05/03 09:47:32;;;;;;;;;;;;;;;;;;5009607;28;20057;-82
2021/05/03 09:49:59;;;;;;;;;;;;;;;;;;4992919;28;19927;-82
2021/05/03 09:52:25;;;;;;;30.17;23.10;;;;;;;;;;5007940;28;20430;-81
2021/05/03 09:54:52;;;;;;;26.05;22.35;;;;;;;;;;4959150;28;20152;-81
2021/05/03 09:57:18;;;;;;;28.67;23.42;;;;;;;;;;4993173;28;20408;-82
2021/05/03 09:59:48;;;;;;;31.50;25.25;;;;;;;;;;5006756;28;20081;-83
2021/05/03 10:02:23;;;;;;;31.40;25.65;;;;;;;;;;4992908;28;20069;-82
2021/05/03 10:04:51;;;;;;;32.38;25.60;;;;;;;;;;5010368;28;20042;-82
2021/05/03 10:07:19;;;;;;;33.17;25.92;;;;;;;;;;5009545;28;20137;-83
2021/05/03 10:09:49;;;;;;;36.30;27.42;;;;;;;;;;4989279;28;20044;-82
2021/05/03 10:12:17;;;;;;;35.92;29.60;;;;;;;;;;5009909;28;20416;-82
2021/05/03 10:14:43;;;;;;;38.70;31.67;;;;;;;;;;4989722;28;20041;-83
2021/05/03 10:17:10;;;;;;;41.20;33.50;;;;;;;;;;5005890;28;20061;-83
2021/05/03 10:19:37;;;;;;;47.47;36.85;;;;;;;;;;5006648;28;20061;-81
2021/05/03 10:22:04;;;;;;;47.22;37.80;;;;;;;;;;5009602;28;20045;-82
2021/05/03 10:24:30;;;;;;;44.72;36.63;;;;;;;;;;4991272;28;20092;-81
2021/05/03 10:26:57;;;;;;;45.78;37.53;;;;;;;;;;4994426;28;20073;-82
2021/05/03 10:29:28;;;;;;;42.42;35.20;;;;;;;;;;5012604;28;20072;-81
2021/05/03 10:31:59;;;;;;;41.72;33.72;;;;;;;;;;4993335;28;20046;-82
2021/05/03 10:34:40;;;;;;;44.45;34.30;;;;;;;;;;4990649;28;20042;-81
2021/05/03 10:37:25;;;;;;;42.70;33.95;;;;;;;;;;4996392;28;20045;-82
2021/05/03 10:39:51;;;;;;;42.63;33.60;;;;;;;;;;5014423;28;20116;-83
2021/05/03 10:42:18;;;;;;;35.25;30.90;;;;;;;;;;4975069;28;20393;-83
2021/05/03 10:45:03;;;;;;;37.72;30.40;;;;;;;;;;4992445;28;20084;-83
2021/05/03 10:47:35;;;;;;;33.35;26.42;;;;;;;;;;4995097;28;20046;-82
2021/05/03 10:50:02;;;;;;;33.08;27.90;;;;;;;;;;5013870;28;20042;-84
2021/05/03 10:52:37;;;;;;;36.80;29.30;;;;;;;;;;5014340;28;20046;-83
2021/05/03 10:55:03;;;;;;;33.28;28.23;;;;;;;;;;5012750;28;20069;-82
2021/05/03 10:57:35;;;;;;;41.38;32.67;;;;;;;;;;5008740;28;20037;-83
2021/05/03 11:00:02;;;;;;;37.58;30.15;;;;;;;;;;4994216;28;20042;-85
2021/05/03 11:02:42;;;;;;;38.80;31.33;;;;;;;;;;4994429;28;20054;-84
2021/05/03 11:05:09;;;;;;;40.65;33.05;;;;;;;;;;4992609;28;20093;-82
2021/05/03 11:07:36;;;;;;;39.75;32.08;;;;;;;;;;4992878;28;20037;-83
2021/05/03 11:10:03;;;;;;;40.92;29.75;;;;;;;;;;5010587;28;20092;-85
2021/05/03 11:12:30;;;;;;;34.25;28.17;;;;;;;;;;5008882;28;20045;-86
2021/05/03 11:15:10;;;;;;;34.75;29.33;;;;;;;;;;4993451;28;20049;-83
2021/05/03 11:17:37;;;;;;;31.52;26.02;;;;;;;;;;4980344;28;20120;-83
2021/05/03 11:20:17;;;;;;;34.80;27.55;;;;;;;;;;4995981;28;20041;-82
2021/05/03 11:22:45;;;;;;;33.03;24.42;;;;;;;;;;4995729;28;20042;-83
2021/05/03 11:25:14;;;;;;;30.95;24.05;;;;;;;;;;5007712;28;20457;-81
2021/05/03 11:32:56;;;;;;;29.45;23.20;;;;;;;;;;4985736;28;20425;-84
2021/05/03 11:38:00;;;;;;;31.90;25.52;;;;;;;;;;4985508;28;20457;-81
2021/05/03 11:40:39;;;;;;;39.83;28.88;;;;;;;;;;4982461;28;20069;-83
2021/05/03 11:45:34;;;;;;;25.70;21.60;;;;;;;;;;4986363;28;20053;-81
2021/05/03 11:48:00;;;;;;;24.38;18.83;;;;;;;;;;4992094;28;20588;-81
2021/05/03 11:50:29;;;;;;;25.00;20.23;;;;;;;;;;4976582;28;20038;-81
2021/05/03 11:52:55;;;;;;;24.02;19.88;;;;;;;;;;4991610;28;20050;-81
2021/05/03 11:55:23;;;;;;;25.35;20.73;;;;;;;;;;4993087;28;20042;-81
2021/05/03 11:57:50;;;;;;;28.13;21.77;;;;;;;;;;4991810;28;20070;-81
2021/05/03 12:00:17;;;;;;;23.88;19.40;;;;;;;;;;4990595;28;20046;-81
2021/05/03 12:02:44;;;;;;;20.92;18.08;;;;;;;;;;4989635;28;20097;-80
2021/05/03 12:05:14;;;;;;;19.88;17.10;;;;;;;;;;4981461;28;20053;-82
2021/05/03 12:07:40;;;;;;;18.52;16.00;;;;;;;;;;4983976;28;20081;-81
2021/05/03 12:10:11;;;;;;;23.15;19.58;;;;;;;;;;4991538;28;20100;-81
2021/05/03 12:12:45;;;;;;;24.02;18.80;;;;;;;;;;4989922;28;20070;-81
2021/05/03 12:15:27;;;;;;;23.92;17.65;;;;;;;;;;4988381;28;20360;-81
2021/05/03 12:18:00;;;;;;;13.30;10.15;;;;;;;;;;4975435;28;20073;-81
2021/05/03 12:20:27;;;;;;;14.10;8.52;;;;;;;;;;4989578;28;20551;-82
2021/05/03 12:23:03;;;;;;;11.70;8.43;;;;;;;;;;4992577;28;20038;-81
2021/05/03 12:25:37;;;;;;;15.55;10.52;;;;;;;;;;4991039;28;20081;-81
2021/05/03 12:28:10;;;;;;;16.88;11.18;;;;;;;;;;4988526;28;20485;-84
2021/05/03 12:30:36;;;;;;;12.50;11.20;;;;;;;;;;4988093;28;20041;-81
2021/05/03 12:33:07;;;;;;;16.25;12.30;;;;;;;;;;4992691;28;20042;-81
2021/05/03 12:35:33;;;;;;;20.30;14.73;;;;;;;;;;4991256;28;20038;-81
2021/05/03 12:37:59;;;;;;;17.52;14.55;;;;;;;;;;4970370;28;20053;-83
2021/05/03 12:40:26;;;;;;;11.48;9.63;;;;;;;;;;4991946;28;20121;-82
2021/05/03 12:42:54;;;;;;;8.80;7.57;;;;;;;;;;4973237;28;20049;-81
2021/05/03 13:04:18;;;;;;;10.85;5.10;;;;;;;;;;4990344;28;20069;-80
2021/05/03 13:09:45;;;;;;;10.07;6.00;;;;;;;;;;4990348;28;20508;-79
2021/05/03 13:29:11;;;;;;;6.78;4.00;;;;;;;;;;5000507;28;20048;-80
2021/05/03 13:31:38;;;;;;;11.13;4.45;;;;;;;;;;5007472;28;20116;-78
2021/05/03 13:34:05;;;;;;;5.32;4.38;;;;;;;;;;5011096;28;20046;-83
2021/05/03 13:36:32;;;;;;;5.13;3.78;;;;;;;;;;5009456;28;20042;-83
2021/05/03 13:38:58;;;;;;;4.63;3.40;;;;;;;;;;4960502;28;20049;-81
2021/05/03 13:41:25;;;;;;;5.65;3.50;;;;;;;;;;4993998;28;20041;-82
2021/05/03 13:43:51;;;;;;;7.47;3.75;;;;;;;;;;5005069;28;20049;-81
2021/05/03 13:46:18;;;;;;;5.72;3.70;;;;;;;;;;5005860;28;20481;-82
2021/05/03 13:48:45;;;;;;;6.00;3.55;;;;;;;;;;5009822;28;20082;-80
2021/05/03 13:51:11;;;;;;;4.85;3.35;;;;;;;;;;5004165;28;20049;-83
2021/05/03 13:53:38;;;;;;;6.68;3.70;;;;;;;;;;4983079;28;20050;-75
2021/05/03 13:56:05;;;;;;;5.85;3.33;;;;;;;;;;5006581;28;20046;-77
2021/05/03 13:58:31;;;;;;;4.80;3.40;;;;;;;;;;5007518;28;20520;-84
2021/05/03 14:00:57;;;;;;;3.53;2.78;;;;;;;;;;4989460;28;20401;-77
2021/05/03 14:03:23;;;;;;;7.32;3.70;;;;;;;;;;5011054;28;20046;-85
2021/05/03 14:05:50;;;;;;;4.60;2.58;;;;;;;;;;5007451;28;20034;-79
2021/05/03 14:08:16;;;;;;;5.13;2.65;;;;;;;;;;5009863;28;20073;-82
2021/05/03 14:10:42;;;;;;;4.47;2.70;;;;;;;;;;4993933;28;20050;-77
2021/05/03 14:13:08;;;;;;;3.70;2.50;;;;;;;;;;5009350;28;20072;-84
2021/05/03 14:15:38;;;;;;;4.25;2.65;;;;;;;;;;5001617;28;20042;-83
2021/05/03 14:18:11;;;;;;;4.10;2.70;;;;;;;;;;5001753;28;20044;-86
2021/05/03 14:20:40;;;;;;;3.17;2.83;;;;;;;;;;4986207;28;20469;-85
2021/05/03 14:23:07;;;;;;;3.55;2.95;;;;;;;;;;5006152;28;20038;-88
2021/05/03 14:25:42;;;;;;;4.97;3.28;;;;;;;;;;4979508;28;20397;-85
2021/05/03 14:28:55;;;;;;;5.68;3.03;;;;;;;;;;4996307;28;20072;-88
2021/05/03 14:31:03;;;;;;;5.30;3.40;;;;;;;;;;4995835;28;20053;-88
2021/05/03 14:33:32;;;;;;;4.43;3.33;;;;;;;;;;4994970;28;20473;-88
2021/05/03 14:35:58;;;;;;;5.57;3.45;;;;;;;;;;4994172;28;20111;-89
2021/05/03 14:38:24;;;;;;;6.93;3.65;;;;;;;;;;5011331;28;20122;-86
2021/05/03 14:40:51;;;;;;;6.40;4.07;;;;;;;;;;4991856;28;20140;-85
2021/05/03 14:43:17;;;;;;;5.65;3.65;;;;;;;;;;4995140;28;20055;-83
2021/05/03 14:48:21;;;;;;;5.50;4.40;;;;;;;;;;5006693;28;20108;-82
2021/05/03 14:56:17;;;;;;;6.78;5.07;;;;;;;;;;5010698;28;20448;-80
2021/05/03 14:58:44;;;;;;;10.02;5.13;;;;;;;;;;4991111;28;20050;-81
2021/05/03 15:01:10;;;;;;;7.32;4.65;;;;;;;;;;5008416;28;20049;-81
2021/05/03 15:03:36;;;;;;;5.53;4.38;;;;;;;;;;5007952;28;20081;-82
2021/05/03 15:06:03;;;;;;;8.35;5.05;;;;;;;;;;5015495;28;20045;-81
2021/05/03 15:08:29;;;;;;;7.15;4.95;;;;;;;;;;4996622;28;20519;-83
2021/05/03 15:10:55;;;;;;;9.52;4.53;;;;;;;;;;5009336;28;20052;-82
2021/05/03 15:13:35;;;;;;;11.45;5.07;;;;;;;;;;5010936;28;20054;-82
2021/05/03 15:16:09;;;;;;;6.82;5.28;;;;;;;;;;5012786;28;20041;-83
2021/05/03 15:23:47;;;;;;;6.90;4.90;;;;;;;;;;5001008;28;20057;-83
2021/05/03 15:26:25;;;;;;;7.25;5.20;;;;;;;;;;4978141;28;20511;-82
2021/05/03 15:34:21;;;;;;;7.20;6.15;;;;;;;;;;5011660;28;20058;-83
2021/05/03 15:36:48;;;;;;;11.50;6.57;;;;;;;;;;5009715;28;20056;-85
2021/05/03 15:39:14;;;;;;;10.02;5.97;;;;;;;;;;5011843;28;20085;-83
2021/05/03 15:41:40;;;;;;;12.30;6.72;;;;;;;;;;4993591;28;20053;-82
2021/05/03 15:44:24;;;;;;;7.72;6.18;;;;;;;;;;5010380;28;20280;-84
2021/05/03 15:46:50;;;;;;;9.35;6.07;;;;;;;;;;4989600;28;20046;-83
2021/05/03 15:49:16;;;;;;;10.85;7.15;;;;;;;;;;5011046;28;20053;-85
2021/05/03 15:51:43;;;;;;;6.95;6.25;;;;;;;;;;5017249;28;20034;-84
2021/05/03 15:54:10;;;;;;;7.97;6.45;;;;;;;;;;4977205;28;20054;-83
2021/05/03 15:56:36;;;;;;;8.98;6.07;;;;;;;;;;4993818;28;20084;-82
2021/05/03 15:59:06;;;;;;;10.70;7.05;;;;;;;;;;5010824;28;20089;-81